Selfridge Angb Airport
KMTC : now visible

Airfield :











YOU CAN JOIN US ON...

 
LOGIN :

Register | Disclaimer

   EN    FR    IT 

 









Legend :    VFR   Marginal VFR   IFR   Intensive IFR   Very Intensive IFR
Visi :
Ceiling :
>= 8 km
>= 3000ft
5 to 8 km
1000 to 3000 ft
1500m to 5 km
500 to 1000 ft
800 to 1500m
200 to 500 ft
< 800m
< 200 ft
Symbols :   Thunderstorms  Fog  Heavy snow  Heavy precipitations  Wind > 20 kt







- Airport Elevation : 580 ft


KMTC - Selfridge Angb

CURRENT METAR :
  • 200856Z AUTO 00000KT 10SM FEW055 16/16 A3013 RMK AO2 VIS 1 1/8 RWY01 SLP206 T01580158 52002

EXPIRED METARs :
  • 200756Z AUTO 00000KT 10SM CLR 16/16 A3013 RMK AO2 SLP206 T01560156
  • 200656Z AUTO 00000KT 10SM BKN050 16/16 A3012 RMK AO2 SLP202 T01580158

TAF TAF KMTC
Valid from the 20 at 09:00 until the 21 at 15:00 UTC


200900Z 2009/2115 VRB06KT 8000 BR FEW050 QNH3012INS
TEMPO 2009/2012 0800 FG
BECMG 2017/2018 VRB06KT 9999 NSW BKN010 OVC020 QNH3010INS
TEMPO 2021/2024 15015G25KT -TSRA OVC025CB
BECMG 2102/2103 VRB06KT 9000 -SHRA OVC050 QNH3012INS
BECMG 2112/2113 16006KT 9999 NSW BKN025 QNH2995INS TX26/2020Z TN16/2011Z LAST NO AMDS AFT 2009 NEXT 2011
No reported NOTAMs for that airfield.



MET'MAP, your aeronautical weather chart ! - Copyright ORBIFLY December 2007 - Disclaimer

ORBIFLY MET'MAP TEAM :

Programming & Development : Alexandra Zaïnal
Concept & Development : Baudouin d'Aumeries
Co-Development & Prog : Marc-Olivier Méhu
Technical & hardware support : Manuel Goepfert

Contact : metmap@orbifly.com




SOURCES & CREDITS :

   NOAA       Earth
Advisory